Flight Track Log - Related Links

Times and Time Zones

All times are in EDT time to prevent confusion due to time zone crossing. See the UAL4422 flight status page for this flight to view local times or setup timezone preferences in your user account.

Time Position Orientation Groundspeed Altitude Reporting Facility
EDT Latitude Longitude Course Direction KTS MPH feet Rate Location/Type
Thu 06:18:34 PM 29.9842 -95.3600 276° West 168 193 900  Level Houston Center
Thu 06:19:11 PM 29.9894 -95.3933 280° West 186 214 2,300 1,818 Climbing Houston Center
Thu 06:20:13 PM 29.9914 -95.4631 272° West 254 292 3,900 2,132 Climbing Houston Center
Thu 06:21:00 PM 30.0172 -95.6543 277° West  Level FlightAware Approximate
Thu 06:21:12 PM 29.9956 -95.5261 274° West 244 281 6,600  Level Houston Center
Thu 06:22:00 PM 30.0291 -95.7617 277° West  Level FlightAware Approximate
Thu 06:22:14 PM 30.0025 -95.6189 275° West 244 281 9,700  Level Houston Center
Thu 06:23:00 PM 30.0392 -95.8694 276° West  Level FlightAware Approximate
Thu 06:23:16 PM 30.0150 -95.6992 280° West 255 293 10,900  Level Houston Center
Thu 06:24:18 PM 30.0303 -95.7969 280° West 305 351 11,900 1,403 Climbing Houston Center
Thu 06:25:20 PM 30.0461 -95.8975 280° West 318 366 13,800 1,500 Climbing Houston Center
Thu 06:26:22 PM 30.0625 -96.0000 280° West 325 374 15,000 1,344 Climbing Houston Center
Thu 06:27:25 PM 30.0794 -96.1181 279° West 324 373 16,600 1,152 Climbing Houston Center
Thu 06:28:27 PM 30.0964 -96.2250 280° West 337 388 17,400 871 Climbing Houston Center
Thu 06:29:29 PM 30.1128 -96.3339 280° West 344 396 18,400 1,016 Climbing Houston Center
Thu 06:30:31 PM 30.1319 -96.4631 280° West 351 404 19,500 1,016 Climbing Houston Center
Thu 06:31:33 PM 30.1489 -96.5781 280° West 358 412 20,500 1,065 Climbing Houston Center
Thu 06:32:35 PM 30.1675 -96.6911 281° West 355 409 21,700 1,210 Climbing Houston Center
Thu 06:33:37 PM 30.1839 -96.8039 280° West 353 406 23,000 1,296 Climbing Houston Center
Thu 06:34:40 PM 30.2008 -96.9164 280° West 352 405 24,400 1,344 Climbing Houston Center
Thu 06:35:42 PM 30.2172 -97.0253 280° West 343 395 25,800 1,452 Climbing Houston Center
Thu 06:36:44 PM 30.2325 -97.1339 279° West 338 389 27,400 1,500 Climbing Houston Center
Thu 06:37:46 PM 30.2514 -97.2581 280° West 332 382 28,900 1,355 Climbing Houston Center
Thu 06:38:48 PM 30.2667 -97.3633 280° West 327 376 30,200 1,403 Climbing Houston Center
Thu 06:39:50 PM 30.2819 -97.4667 280° West 324 373 31,800 871 Climbing Houston Center
Thu 06:40:52 PM 30.3033 -97.5725 283° West 340 391 32,000 97 Climbing Houston Center
Thu 06:41:54 PM 30.3450 -97.6828 294° West 365 420 32,000  Level Houston Center
Thu 06:42:56 PM 30.3900 -97.8019 294° West 393 452 32,000  Level Houston Center
Thu 06:43:58 PM 30.4350 -97.9203 294° West 396 456 32,000  Level Houston Center
Thu 06:45:00 PM 30.4783 -98.0397 293° West 397 457 32,000  Level Houston Center
Thu 06:46:02 PM 30.5239 -98.1586 294° West 397 457 32,000  Level Houston Center
Thu 06:47:04 PM 30.5744 -98.2975 293° West 397 457 32,000  Level Houston Center
Thu 06:48:06 PM 30.6194 -98.4153 294° West 395 455 32,000  Level Houston Center
Thu 06:49:08 PM 30.6631 -98.5333 293° West 394 453 32,000  Level Houston Center
Thu 06:50:10 PM 30.7067 -98.6522 293° West 395 455 32,000  Level Houston Center
Thu 06:51:12 PM 30.7500 -98.7717 293° West 397 457 32,000  Level Houston Center
Thu 06:52:14 PM 30.7944 -98.8900 294° West 396 456 32,000  Level Houston Center
Thu 06:53:16 PM 30.8367 -99.0100 292° West 397 457 32,000  Level Houston Center
Thu 06:54:17 PM 30.8792 -99.1275 293° West 393 452 32,000  Level Houston Center
Thu 06:55:19 PM 30.9286 -99.2608 293° West 396 456 32,000  Level Houston Center
Thu 06:56:21 PM 30.9708 -99.3792 293° West 397 457 32,000  Level Houston Center
Thu 06:57:23 PM 31.0117 -99.4961 292° West 393 452 32,000  Level Houston Center
Thu 06:58:25 PM 31.0539 -99.6142 293° West 396 456 32,000  Level Houston Center
Thu 06:59:27 PM 31.1042 -99.7558 293° West 396 456 32,000  Level Houston Center
Thu 07:00:29 PM 31.1469 -99.8753 293° West 400 460 32,000  Level Houston Center
Thu 07:01:31 PM 31.1894 -99.9919 293° West 392 451 32,000  Level Houston Center
Thu 07:02:34 PM 31.2317 -100.1111 293° West 395 455 32,000  Level Houston Center
Thu 07:03:36 PM 31.2728 -100.2286 292° West 391 450 32,000  Level Houston Center
Thu 07:04:38 PM 31.3147 -100.3492 292° West 394 453 32,000  Level Houston Center
Thu 07:05:19 PM 31.3481 -100.4442 292° West 398 458 32,000 -891 Level Fort Worth Center
Thu 07:06:19 PM 31.3889 -100.5647 292° West 398 458 30,500 -1,700 Descending Fort Worth Center
Thu 07:07:19 PM 31.4275 -100.6803 291° West 392 451 28,600 -2,182 Descending Fort Worth Center
Thu 07:08:20 PM 31.4703 -100.8011 293° West 398 458 26,100 -2,550 Descending Fort Worth Center
Thu 07:09:19 PM 31.5128 -100.9247 292° West 403 464 23,500 -2,571 Descending Fort Worth Center
Thu 07:10:19 PM 31.5556 -101.0433 293° West 403 464 21,000 -2,500 Descending Fort Worth Center
Thu 07:11:19 PM 31.5939 -101.1594 291° West 391 450 18,500 -2,650 Descending Fort Worth Center
Thu 07:12:19 PM 31.6342 -101.2708 293° West 386 444 15,700 -2,100 Descending Fort Worth Center
Thu 07:13:19 PM 31.6686 -101.3772 291° West 366 421 14,300 -1,050 Descending Fort Worth Center
Thu 07:14:19 PM 31.7047 -101.4861 291° West 360 414 13,600 -1,300 Descending Fort Worth Center
Thu 07:15:19 PM 31.7386 -101.5950 290° West 360 414 11,700 -1,650 Descending Fort Worth Center
Thu 07:16:19 PM 31.7731 -101.6919 293° West 344 396 10,300 -1,450 Descending Fort Worth Center
Thu 07:17:19 PM 31.7994 -101.7764 290° West 308 354 8,800 -1,650 Descending Fort Worth Center
Thu 07:18:19 PM 31.8258 -101.8533 292° West 277 319 7,000 -1,550 Descending Fort Worth Center
Thu 07:19:19 PM 31.8522 -101.9303 292° West 263 303 5,700 -1,000 Descending Fort Worth Center
Thu 07:20:19 PM 31.8783 -102.0172 289° West 258 297 5,000 -300 Descending Fort Worth Center
Thu 07:21:19 PM 31.9028 -102.0919 291° West 253 291 5,100 -450 Climbing Fort Worth Center
Thu 07:22:19 PM 31.9217 -102.1467 292° West 226 260 4,100 -1,050 Descending Fort Worth Center
Thu 07:23:19 PM 31.9367 -102.1867 294° West 175 201 3,000 -1,100 Descending Fort Worth Center

Login

Don't have an account? Register now (free) for customized features, flight alerts, and more!